sensor_id;sensor_type;location;lat;lon;timestamp;temperature;humidity
27747;DHT22;15138;51.012;4.692;2023-07-09T00:01:51;23.50;99.90
27747;DHT22;15138;51.012;4.692;2023-07-09T00:04:21;23.50;99.90
27747;DHT22;15138;51.012;4.692;2023-07-09T00:06:50;23.60;99.90
27747;DHT22;15138;51.012;4.692;2023-07-09T00:09:20;23.50;99.90
27747;DHT22;15138;51.012;4.692;2023-07-09T00:11:49;23.50;99.90
27747;DHT22;15138;51.012;4.692;2023-07-09T00:14:18;23.40;99.90
27747;DHT22;15138;51.012;4.692;2023-07-09T00:16:46;23.40;99.90
27747;DHT22;15138;51.012;4.692;2023-07-09T00:19:18;23.30;99.90
27747;DHT22;15138;51.012;4.692;2023-07-09T00:21:49;23.30;99.90
27747;DHT22;15138;51.012;4.692;2023-07-09T00:24:20;23.20;99.90
27747;DHT22;15138;51.012;4.692;2023-07-09T00:26:49;23.20;99.90
27747;DHT22;15138;51.012;4.692;2023-07-09T00:29:18;23.10;99.90
27747;DHT22;15138;51.012;4.692;2023-07-09T00:31:46;23.10;99.90
27747;DHT22;15138;51.012;4.692;2023-07-09T00:34:15;23.10;99.90
27747;DHT22;15138;51.012;4.692;2023-07-09T00:36:50;23.00;99.90
27747;DHT22;15138;51.012;4.692;2023-07-09T00:39:19;22.90;1.00
27747;DHT22;15138;51.012;4.692;2023-07-09T00:41:50;22.80;1.00
27747;DHT22;15138;51.012;4.692;2023-07-09T00:44:26;22.80;99.90
27747;DHT22;15138;51.012;4.692;2023-07-09T00:47:24;22.80;1.00
27747;DHT22;15138;51.012;4.692;2023-07-09T00:50:01;22.70;1.00
27747;DHT22;15138;51.012;4.692;2023-07-09T00:52:36;22.70;1.00
27747;DHT22;15138;51.012;4.692;2023-07-09T00:55:09;22.50;1.00
27747;DHT22;15138;51.012;4.692;2023-07-09T00:57:41;22.60;1.00
27747;DHT22;15138;51.012;4.692;2023-07-09T01:00:13;22.60;1.00
27747;DHT22;15138;51.012;4.692;2023-07-09T01:02:45;22.60;99.90
27747;DHT22;15138;51.012;4.692;2023-07-09T01:05:16;22.60;99.90
27747;DHT22;15138;51.012;4.692;2023-07-09T01:07:48;22.60;99.90
27747;DHT22;15138;51.012;4.692;2023-07-09T01:10:17;22.60;99.90
27747;DHT22;15138;51.012;4.692;2023-07-09T01:12:49;22.60;99.90
27747;DHT22;15138;51.012;4.692;2023-07-09T01:15:18;22.60;99.90
27747;DHT22;15138;51.012;4.692;2023-07-09T01:17:46;22.60;99.90
27747;DHT22;15138;51.012;4.692;2023-07-09T01:20:16;22.60;99.90
27747;DHT22;15138;51.012;4.692;2023-07-09T01:22:51;22.50;1.00
27747;DHT22;15138;51.012;4.692;2023-07-09T01:25:22;22.40;1.00
27747;DHT22;15138;51.012;4.692;2023-07-09T01:27:50;22.40;1.00
27747;DHT22;15138;51.012;4.692;2023-07-09T01:30:21;22.40;1.00
27747;DHT22;15138;51.012;4.692;2023-07-09T01:32:50;22.30;1.00
27747;DHT22;15138;51.012;4.692;2023-07-09T01:35:20;22.30;1.00
27747;DHT22;15138;51.012;4.692;2023-07-09T01:37:50;22.30;1.00
27747;DHT22;15138;51.012;4.692;2023-07-09T01:40:21;22.30;1.00
27747;DHT22;15138;51.012;4.692;2023-07-09T01:42:59;22.30;1.00
27747;DHT22;15138;51.012;4.692;2023-07-09T01:45:28;22.20;1.00
27747;DHT22;15138;51.012;4.692;2023-07-09T01:47:56;22.20;33.00
27747;DHT22;15138;51.012;4.692;2023-07-09T01:50:25;22.10;1.00
27747;DHT22;15138;51.012;4.692;2023-07-09T01:52:56;22.10;1.00
27747;DHT22;15138;51.012;4.692;2023-07-09T01:55:24;22.10;1.00
27747;DHT22;15138;51.012;4.692;2023-07-09T01:57:52;22.10;99.90
27747;DHT22;15138;51.012;4.692;2023-07-09T02:00:21;22.20;1.00
27747;DHT22;15138;51.012;4.692;2023-07-09T02:02:51;22.10;1.00
27747;DHT22;15138;51.012;4.692;2023-07-09T02:05:20;22.20;99.90
27747;DHT22;15138;51.012;4.692;2023-07-09T02:07:48;22.10;1.00
27747;DHT22;15138;51.012;4.692;2023-07-09T02:10:18;22.00;1.00
27747;DHT22;15138;51.012;4.692;2023-07-09T02:12:47;22.10;99.90
27747;DHT22;15138;51.012;4.692;2023-07-09T02:15:15;22.00;1.00
27747;DHT22;15138;51.012;4.692;2023-07-09T02:17:44;21.90;1.00
27747;DHT22;15138;51.012;4.692;2023-07-09T02:20:13;21.90;1.00
27747;DHT22;15138;51.012;4.692;2023-07-09T02:22:42;21.90;1.00
27747;DHT22;15138;51.012;4.692;2023-07-09T02:25:10;21.80;3.60
27747;DHT22;15138;51.012;4.692;2023-07-09T02:27:40;21.80;99.90
27747;DHT22;15138;51.012;4.692;2023-07-09T02:30:09;21.70;99.90
27747;DHT22;15138;51.012;4.692;2023-07-09T02:32:38;21.80;1.00
27747;DHT22;15138;51.012;4.692;2023-07-09T02:35:07;21.80;1.00
27747;DHT22;15138;51.012;4.692;2023-07-09T02:37:35;21.80;1.00
27747;DHT22;15138;51.012;4.692;2023-07-09T02:40:05;21.70;1.00
27747;DHT22;15138;51.012;4.692;2023-07-09T02:42:33;21.80;1.00
27747;DHT22;15138;51.012;4.692;2023-07-09T02:45:04;21.70;1.00
27747;DHT22;15138;51.012;4.692;2023-07-09T02:47:33;21.70;1.00
27747;DHT22;15138;51.012;4.692;2023-07-09T02:50:01;21.60;1.00
27747;DHT22;15138;51.012;4.692;2023-07-09T02:52:30;21.70;1.00
27747;DHT22;15138;51.012;4.692;2023-07-09T02:54:58;21.60;99.90
27747;DHT22;15138;51.012;4.692;2023-07-09T02:57:26;21.60;99.90
27747;DHT22;15138;51.012;4.692;2023-07-09T02:59:54;21.50;98.70
27747;DHT22;15138;51.012;4.692;2023-07-09T03:02:24;21.50;99.90
27747;DHT22;15138;51.012;4.692;2023-07-09T03:04:52;21.50;99.90
27747;DHT22;15138;51.012;4.692;2023-07-09T03:07:20;21.50;99.90
27747;DHT22;15138;51.012;4.692;2023-07-09T03:09:49;21.50;96.40
27747;DHT22;15138;51.012;4.692;2023-07-09T03:12:17;21.50;1.00
27747;DHT22;15138;51.012;4.692;2023-07-09T03:14:47;21.50;1.00
27747;DHT22;15138;51.012;4.692;2023-07-09T03:17:16;21.50;1.00
27747;DHT22;15138;51.012;4.692;2023-07-09T03:19:45;21.50;1.00
27747;DHT22;15138;51.012;4.692;2023-07-09T03:22:13;21.40;1.00
27747;DHT22;15138;51.012;4.692;2023-07-09T03:24:42;21.50;1.00
27747;DHT22;15138;51.012;4.692;2023-07-09T03:27:10;21.40;1.00
27747;DHT22;15138;51.012;4.692;2023-07-09T03:29:38;21.40;1.00
27747;DHT22;15138;51.012;4.692;2023-07-09T03:32:06;21.40;55.30
27747;DHT22;15138;51.012;4.692;2023-07-09T03:34:35;21.30;99.90
27747;DHT22;15138;51.012;4.692;2023-07-09T03:37:05;21.30;99.90
27747;DHT22;15138;51.012;4.692;2023-07-09T03:39:33;21.30;99.90
27747;DHT22;15138;51.012;4.692;2023-07-09T03:42:01;21.20;18.10
27747;DHT22;15138;51.012;4.692;2023-07-09T03:44:30;21.20;1.90
27747;DHT22;15138;51.012;4.692;2023-07-09T03:46:58;21.30;1.00
27747;DHT22;15138;51.012;4.692;2023-07-09T03:49:26;21.30;1.00
27747;DHT22;15138;51.012;4.692;2023-07-09T03:51:54;21.30;1.00
27747;DHT22;15138;51.012;4.692;2023-07-09T03:54:24;21.30;1.00
27747;DHT22;15138;51.012;4.692;2023-07-09T03:56:53;21.20;99.90
27747;DHT22;15138;51.012;4.692;2023-07-09T03:59:21;21.20;99.90
27747;DHT22;15138;51.012;4.692;2023-07-09T04:01:50;21.20;99.90
27747;DHT22;15138;51.012;4.692;2023-07-09T04:04:18;21.20;99.90
27747;DHT22;15138;51.012;4.692;2023-07-09T04:06:47;21.20;92.40
27747;DHT22;15138;51.012;4.692;2023-07-09T04:09:15;21.20;1.00
27747;DHT22;15138;51.012;4.692;2023-07-09T04:11:45;21.20;37.20
27747;DHT22;15138;51.012;4.692;2023-07-09T04:14:13;21.20;1.00
27747;DHT22;15138;51.012;4.692;2023-07-09T04:16:41;21.20;1.00
27747;DHT22;15138;51.012;4.692;2023-07-09T04:19:10;21.20;1.00
27747;DHT22;15138;51.012;4.692;2023-07-09T04:21:38;21.30;1.00
27747;DHT22;15138;51.012;4.692;2023-07-09T04:24:06;21.30;1.00
27747;DHT22;15138;51.012;4.692;2023-07-09T04:26:35;21.30;1.00
27747;DHT22;15138;51.012;4.692;2023-07-09T04:29:07;21.30;12.00
27747;DHT22;15138;51.012;4.692;2023-07-09T04:31:35;21.30;99.90
27747;DHT22;15138;51.012;4.692;2023-07-09T04:34:04;21.30;1.00
27747;DHT22;15138;51.012;4.692;2023-07-09T04:36:33;21.30;1.00
27747;DHT22;15138;51.012;4.692;2023-07-09T04:39:02;21.40;1.00
27747;DHT22;15138;51.012;4.692;2023-07-09T04:41:31;21.40;1.00
27747;DHT22;15138;51.012;4.692;2023-07-09T04:43:59;21.40;1.00
27747;DHT22;15138;51.012;4.692;2023-07-09T04:46:29;21.50;1.00
27747;DHT22;15138;51.012;4.692;2023-07-09T04:48:57;21.50;1.00
27747;DHT22;15138;51.012;4.692;2023-07-09T04:51:27;21.50;1.00
27747;DHT22;15138;51.012;4.692;2023-07-09T04:53:55;21.60;1.00
27747;DHT22;15138;51.012;4.692;2023-07-09T04:56:25;21.60;1.00
27747;DHT22;15138;51.012;4.692;2023-07-09T04:58:57;21.70;1.00
27747;DHT22;15138;51.012;4.692;2023-07-09T05:01:25;21.70;1.00
27747;DHT22;15138;51.012;4.692;2023-07-09T05:03:55;21.80;1.00
27747;DHT22;15138;51.012;4.692;2023-07-09T05:06:24;21.80;99.90
27747;DHT22;15138;51.012;4.692;2023-07-09T05:08:52;21.80;99.90
27747;DHT22;15138;51.012;4.692;2023-07-09T05:11:20;21.90;99.90
27747;DHT22;15138;51.012;4.692;2023-07-09T05:13:48;22.00;99.90
27747;DHT22;15138;51.012;4.692;2023-07-09T05:16:20;21.90;99.90
27747;DHT22;15138;51.012;4.692;2023-07-09T05:18:48;22.00;99.90
27747;DHT22;15138;51.012;4.692;2023-07-09T05:21:17;22.10;99.90
27747;DHT22;15138;51.012;4.692;2023-07-09T05:23:45;22.20;99.90
27747;DHT22;15138;51.012;4.692;2023-07-09T05:26:14;22.30;99.90
27747;DHT22;15138;51.012;4.692;2023-07-09T05:28:42;22.30;97.10
27747;DHT22;15138;51.012;4.692;2023-07-09T05:31:10;22.40;99.90
27747;DHT22;15138;51.012;4.692;2023-07-09T05:33:39;22.50;1.00
27747;DHT22;15138;51.012;4.692;2023-07-09T05:36:08;22.60;99.90
27747;DHT22;15138;51.012;4.692;2023-07-09T05:38:42;22.70;10.30
27747;DHT22;15138;51.012;4.692;2023-07-09T05:41:10;22.80;99.90
27747;DHT22;15138;51.012;4.692;2023-07-09T05:43:38;22.90;99.90
27747;DHT22;15138;51.012;4.692;2023-07-09T05:46:06;23.10;1.00
27747;DHT22;15138;51.012;4.692;2023-07-09T05:48:34;23.20;1.00
27747;DHT22;15138;51.012;4.692;2023-07-09T05:51:03;23.30;99.90
27747;DHT22;15138;51.012;4.692;2023-07-09T05:53:31;23.50;21.30
27747;DHT22;15138;51.012;4.692;2023-07-09T05:56:01;23.60;1.00
27747;DHT22;15138;51.012;4.692;2023-07-09T05:58:30;23.80;1.00
27747;DHT22;15138;51.012;4.692;2023-07-09T06:00:59;23.90;1.00
27747;DHT22;15138;51.012;4.692;2023-07-09T06:03:29;24.10;1.00
27747;DHT22;15138;51.012;4.692;2023-07-09T06:05:58;24.20;99.90
27747;DHT22;15138;51.012;4.692;2023-07-09T06:08:27;24.30;99.90
27747;DHT22;15138;51.012;4.692;2023-07-09T06:10:58;24.40;99.90
27747;DHT22;15138;51.012;4.692;2023-07-09T06:13:29;24.60;99.90
27747;DHT22;15138;51.012;4.692;2023-07-09T06:15:58;24.70;1.00
27747;DHT22;15138;51.012;4.692;2023-07-09T06:18:28;24.70;1.00
27747;DHT22;15138;51.012;4.692;2023-07-09T06:20:59;24.80;1.00
27747;DHT22;15138;51.012;4.692;2023-07-09T06:23:28;25.00;1.00
27747;DHT22;15138;51.012;4.692;2023-07-09T06:25:56;25.10;1.00
27747;DHT22;15138;51.012;4.692;2023-07-09T06:28:27;25.20;1.00
27747;DHT22;15138;51.012;4.692;2023-07-09T06:30:58;25.30;1.00
27747;DHT22;15138;51.012;4.692;2023-07-09T06:33:27;25.50;1.00
27747;DHT22;15138;51.012;4.692;2023-07-09T06:35:58;25.60;1.00
27747;DHT22;15138;51.012;4.692;2023-07-09T06:38:28;25.70;1.00
27747;DHT22;15138;51.012;4.692;2023-07-09T06:40:57;26.00;1.00
27747;DHT22;15138;51.012;4.692;2023-07-09T06:43:25;26.10;99.90
27747;DHT22;15138;51.012;4.692;2023-07-09T06:46:00;26.00;99.90
27747;DHT22;15138;51.012;4.692;2023-07-09T06:48:29;26.10;99.90
27747;DHT22;15138;51.012;4.692;2023-07-09T06:50:58;26.30;99.90
27747;DHT22;15138;51.012;4.692;2023-07-09T06:53:28;26.40;99.90
27747;DHT22;15138;51.012;4.692;2023-07-09T06:55:56;26.50;99.90
27747;DHT22;15138;51.012;4.692;2023-07-09T06:58:26;26.70;99.90
27747;DHT22;15138;51.012;4.692;2023-07-09T07:00:55;26.90;99.90
27747;DHT22;15138;51.012;4.692;2023-07-09T07:03:25;26.90;99.90
27747;DHT22;15138;51.012;4.692;2023-07-09T07:05:53;26.90;99.90
27747;DHT22;15138;51.012;4.692;2023-07-09T07:08:22;27.20;99.90
27747;DHT22;15138;51.012;4.692;2023-07-09T07:10:54;27.30;99.90
27747;DHT22;15138;51.012;4.692;2023-07-09T07:13:28;27.40;99.90
27747;DHT22;15138;51.012;4.692;2023-07-09T07:15:57;27.40;99.90
27747;DHT22;15138;51.012;4.692;2023-07-09T07:18:26;27.70;99.90
27747;DHT22;15138;51.012;4.692;2023-07-09T07:20:55;27.80;99.90
27747;DHT22;15138;51.012;4.692;2023-07-09T07:23:23;27.60;99.90
27747;DHT22;15138;51.012;4.692;2023-07-09T07:25:51;27.60;99.90
27747;DHT22;15138;51.012;4.692;2023-07-09T07:28:20;27.70;99.90
27747;DHT22;15138;51.012;4.692;2023-07-09T07:30:58;28.00;99.90
27747;DHT22;15138;51.012;4.692;2023-07-09T07:33:27;28.10;99.90
27747;DHT22;15138;51.012;4.692;2023-07-09T07:35:55;28.40;99.90
27747;DHT22;15138;51.012;4.692;2023-07-09T07:38:26;28.60;99.90
27747;DHT22;15138;51.012;4.692;2023-07-09T07:40:55;28.70;99.90
27747;DHT22;15138;51.012;4.692;2023-07-09T07:43:23;28.20;99.90
27747;DHT22;15138;51.012;4.692;2023-07-09T07:45:51;28.80;99.90
27747;DHT22;15138;51.012;4.692;2023-07-09T07:48:19;28.80;99.90
27747;DHT22;15138;51.012;4.692;2023-07-09T07:50:49;29.10;99.90
27747;DHT22;15138;51.012;4.692;2023-07-09T07:53:17;29.00;99.90
27747;DHT22;15138;51.012;4.692;2023-07-09T07:55:45;29.20;99.90
27747;DHT22;15138;51.012;4.692;2023-07-09T07:58:13;29.60;99.90
27747;DHT22;15138;51.012;4.692;2023-07-09T08:00:41;29.90;99.90
27747;DHT22;15138;51.012;4.692;2023-07-09T08:03:10;29.90;99.90
27747;DHT22;15138;51.012;4.692;2023-07-09T08:05:38;29.70;99.90
27747;DHT22;15138;51.012;4.692;2023-07-09T08:08:07;30.00;99.90
27747;DHT22;15138;51.012;4.692;2023-07-09T08:10:36;30.10;99.90
27747;DHT22;15138;51.012;4.692;2023-07-09T08:13:04;30.00;99.90
27747;DHT22;15138;51.012;4.692;2023-07-09T08:15:32;30.40;99.90
27747;DHT22;15138;51.012;4.692;2023-07-09T08:18:01;30.80;99.90
27747;DHT22;15138;51.012;4.692;2023-07-09T08:20:29;30.80;99.90
27747;DHT22;15138;51.012;4.692;2023-07-09T08:23:00;31.00;99.90
27747;DHT22;15138;51.012;4.692;2023-07-09T08:25:30;31.30;99.90
27747;DHT22;15138;51.012;4.692;2023-07-09T08:27:58;31.30;99.90
27747;DHT22;15138;51.012;4.692;2023-07-09T08:30:26;31.50;99.90
27747;DHT22;15138;51.012;4.692;2023-07-09T08:32:55;31.60;99.90
27747;DHT22;15138;51.012;4.692;2023-07-09T08:35:24;31.60;99.90
27747;DHT22;15138;51.012;4.692;2023-07-09T08:38:02;31.90;99.90
27747;DHT22;15138;51.012;4.692;2023-07-09T08:40:32;32.10;99.90
27747;DHT22;15138;51.012;4.692;2023-07-09T08:43:05;32.20;99.90
27747;DHT22;15138;51.012;4.692;2023-07-09T08:45:44;32.10;99.90
27747;DHT22;15138;51.012;4.692;2023-07-09T08:48:18;32.30;99.90
27747;DHT22;15138;51.012;4.692;2023-07-09T08:50:51;32.50;99.90
27747;DHT22;15138;51.012;4.692;2023-07-09T08:53:27;32.80;99.90
27747;DHT22;15138;51.012;4.692;2023-07-09T08:55:59;33.00;99.90
27747;DHT22;15138;51.012;4.692;2023-07-09T08:58:29;33.10;99.90
27747;DHT22;15138;51.012;4.692;2023-07-09T09:01:00;33.30;99.90
27747;DHT22;15138;51.012;4.692;2023-07-09T09:03:35;33.70;99.90
27747;DHT22;15138;51.012;4.692;2023-07-09T09:06:11;33.40;99.90
27747;DHT22;15138;51.012;4.692;2023-07-09T09:08:46;33.80;99.90
27747;DHT22;15138;51.012;4.692;2023-07-09T09:11:20;34.20;99.90
27747;DHT22;15138;51.012;4.692;2023-07-09T09:13:52;34.40;99.90
27747;DHT22;15138;51.012;4.692;2023-07-09T09:16:24;34.30;99.90
27747;DHT22;15138;51.012;4.692;2023-07-09T09:18:56;34.60;99.90
27747;DHT22;15138;51.012;4.692;2023-07-09T09:21:29;34.80;99.90
27747;DHT22;15138;51.012;4.692;2023-07-09T09:24:13;35.00;99.90
27747;DHT22;15138;51.012;4.692;2023-07-09T09:26:43;35.20;99.90
27747;DHT22;15138;51.012;4.692;2023-07-09T09:29:14;35.60;99.90
27747;DHT22;15138;51.012;4.692;2023-07-09T09:31:46;35.50;99.90
27747;DHT22;15138;51.012;4.692;2023-07-09T09:34:17;35.20;99.90
27747;DHT22;15138;51.012;4.692;2023-07-09T09:36:47;35.40;99.90
27747;DHT22;15138;51.012;4.692;2023-07-09T09:39:16;35.30;99.90
27747;DHT22;15138;51.012;4.692;2023-07-09T09:41:46;35.50;99.90
27747;DHT22;15138;51.012;4.692;2023-07-09T09:44:18;36.00;99.90
27747;DHT22;15138;51.012;4.692;2023-07-09T09:46:48;36.50;99.90
27747;DHT22;15138;51.012;4.692;2023-07-09T09:49:17;35.90;99.90
27747;DHT22;15138;51.012;4.692;2023-07-09T09:51:47;36.60;99.90
27747;DHT22;15138;51.012;4.692;2023-07-09T09:54:18;36.40;99.90
27747;DHT22;15138;51.012;4.692;2023-07-09T09:56:50;36.60;99.90
27747;DHT22;15138;51.012;4.692;2023-07-09T09:59:20;36.10;99.90
27747;DHT22;15138;51.012;4.692;2023-07-09T10:01:57;36.50;99.90
27747;DHT22;15138;51.012;4.692;2023-07-09T10:04:27;36.70;99.90
27747;DHT22;15138;51.012;4.692;2023-07-09T10:06:58;36.50;99.90
27747;DHT22;15138;51.012;4.692;2023-07-09T10:09:35;36.80;99.90
27747;DHT22;15138;51.012;4.692;2023-07-09T10:12:15;36.90;99.90
27747;DHT22;15138;51.012;4.692;2023-07-09T10:14:58;36.30;96.70
27747;DHT22;15138;51.012;4.692;2023-07-09T10:17:34;35.80;96.80
27747;DHT22;15138;51.012;4.692;2023-07-09T10:20:08;36.30;99.90
27747;DHT22;15138;51.012;4.692;2023-07-09T10:22:43;37.00;97.70
27747;DHT22;15138;51.012;4.692;2023-07-09T10:25:25;37.50;99.90
27747;DHT22;15138;51.012;4.692;2023-07-09T10:28:15;36.90;92.40
27747;DHT22;15138;51.012;4.692;2023-07-09T10:30:52;37.10;96.40
27747;DHT22;15138;51.012;4.692;2023-07-09T10:33:33;36.90;92.20
27747;DHT22;15138;51.012;4.692;2023-07-09T10:36:15;37.00;96.40
27747;DHT22;15138;51.012;4.692;2023-07-09T10:38:51;36.40;84.10
27747;DHT22;15138;51.012;4.692;2023-07-09T10:41:24;35.90;86.80
27747;DHT22;15138;51.012;4.692;2023-07-09T10:43:59;36.20;93.30
27747;DHT22;15138;51.012;4.692;2023-07-09T10:46:32;35.50;87.50
27747;DHT22;15138;51.012;4.692;2023-07-09T10:49:01;35.50;92.70
27747;DHT22;15138;51.012;4.692;2023-07-09T10:51:38;35.60;90.40
27747;DHT22;15138;51.012;4.692;2023-07-09T10:54:12;35.50;85.70
27747;DHT22;15138;51.012;4.692;2023-07-09T10:56:43;35.40;91.00
27747;DHT22;15138;51.012;4.692;2023-07-09T10:59:21;34.80;84.50
27747;DHT22;15138;51.012;4.692;2023-07-09T11:01:53;34.90;85.90
27747;DHT22;15138;51.012;4.692;2023-07-09T11:04:29;34.50;83.70
27747;DHT22;15138;51.012;4.692;2023-07-09T11:07:01;34.00;96.20
27747;DHT22;15138;51.012;4.692;2023-07-09T11:09:33;33.50;78.20
27747;DHT22;15138;51.012;4.692;2023-07-09T11:12:05;33.30;77.20
27747;DHT22;15138;51.012;4.692;2023-07-09T11:14:39;33.10;82.20
27747;DHT22;15138;51.012;4.692;2023-07-09T11:17:13;33.10;83.60
27747;DHT22;15138;51.012;4.692;2023-07-09T11:19:43;33.00;80.90
27747;DHT22;15138;51.012;4.692;2023-07-09T11:22:17;32.40;78.40
27747;DHT22;15138;51.012;4.692;2023-07-09T11:24:48;32.50;75.20
27747;DHT22;15138;51.012;4.692;2023-07-09T11:27:24;32.20;77.00
27747;DHT22;15138;51.012;4.692;2023-07-09T11:29:59;31.80;79.30
27747;DHT22;15138;51.012;4.692;2023-07-09T11:32:27;32.20;79.40
27747;DHT22;15138;51.012;4.692;2023-07-09T11:35:07;32.30;81.30
27747;DHT22;15138;51.012;4.692;2023-07-09T11:37:44;32.30;80.30
27747;DHT22;15138;51.012;4.692;2023-07-09T11:40:14;32.10;81.80
27747;DHT22;15138;51.012;4.692;2023-07-09T11:42:49;31.70;77.70
27747;DHT22;15138;51.012;4.692;2023-07-09T11:45:21;31.60;78.20
27747;DHT22;15138;51.012;4.692;2023-07-09T11:47:57;31.60;78.30
27747;DHT22;15138;51.012;4.692;2023-07-09T11:50:34;31.30;80.80
27747;DHT22;15138;51.012;4.692;2023-07-09T11:53:05;31.10;80.10
27747;DHT22;15138;51.012;4.692;2023-07-09T11:55:45;31.10;80.70
27747;DHT22;15138;51.012;4.692;2023-07-09T11:58:16;30.90;82.30
27747;DHT22;15138;51.012;4.692;2023-07-09T12:00:48;30.70;78.80
27747;DHT22;15138;51.012;4.692;2023-07-09T12:03:18;30.60;82.50
27747;DHT22;15138;51.012;4.692;2023-07-09T12:05:50;30.30;79.40
27747;DHT22;15138;51.012;4.692;2023-07-09T12:08:22;30.30;84.10
27747;DHT22;15138;51.012;4.692;2023-07-09T12:10:53;30.10;83.10
27747;DHT22;15138;51.012;4.692;2023-07-09T12:13:21;30.10;84.80
27747;DHT22;15138;51.012;4.692;2023-07-09T12:15:51;30.00;84.10
27747;DHT22;15138;51.012;4.692;2023-07-09T12:18:19;29.80;85.40
27747;DHT22;15138;51.012;4.692;2023-07-09T12:20:51;29.70;85.80
27747;DHT22;15138;51.012;4.692;2023-07-09T12:23:22;29.50;85.40
27747;DHT22;15138;51.012;4.692;2023-07-09T12:25:51;29.40;89.00
27747;DHT22;15138;51.012;4.692;2023-07-09T12:28:22;29.30;90.00
27747;DHT22;15138;51.012;4.692;2023-07-09T12:30:52;29.10;89.80
27747;DHT22;15138;51.012;4.692;2023-07-09T12:33:22;29.00;90.60
27747;DHT22;15138;51.012;4.692;2023-07-09T12:35:55;28.90;91.00
27747;DHT22;15138;51.012;4.692;2023-07-09T12:38:26;28.60;92.30
27747;DHT22;15138;51.012;4.692;2023-07-09T12:40:55;28.10;94.30
27747;DHT22;15138;51.012;4.692;2023-07-09T12:43:30;27.90;99.70
27747;DHT22;15138;51.012;4.692;2023-07-09T12:46:00;27.70;99.90
27747;DHT22;15138;51.012;4.692;2023-07-09T12:48:30;27.50;99.90
27747;DHT22;15138;51.012;4.692;2023-07-09T12:50:59;27.20;99.90
27747;DHT22;15138;51.012;4.692;2023-07-09T12:53:29;27.00;99.90
27747;DHT22;15138;51.012;4.692;2023-07-09T12:55:59;26.70;99.90
27747;DHT22;15138;51.012;4.692;2023-07-09T12:58:29;26.50;99.90
27747;DHT22;15138;51.012;4.692;2023-07-09T13:01:05;26.30;99.90
27747;DHT22;15138;51.012;4.692;2023-07-09T13:20:48;26.20;99.90
27747;DHT22;15138;51.012;4.692;2023-07-09T13:23:18;26.60;99.90
27747;DHT22;15138;51.012;4.692;2023-07-09T13:25:47;26.60;99.90
27747;DHT22;15138;51.012;4.692;2023-07-09T13:28:17;26.70;99.90
27747;DHT22;15138;51.012;4.692;2023-07-09T13:30:46;26.80;99.90
27747;DHT22;15138;51.012;4.692;2023-07-09T13:33:14;26.90;99.90
27747;DHT22;15138;51.012;4.692;2023-07-09T13:35:45;27.00;99.90
27747;DHT22;15138;51.012;4.692;2023-07-09T13:38:16;27.00;99.90
27747;DHT22;15138;51.012;4.692;2023-07-09T13:40:45;27.20;99.90
27747;DHT22;15138;51.012;4.692;2023-07-09T13:43:17;27.00;99.90
27747;DHT22;15138;51.012;4.692;2023-07-09T13:45:46;27.20;99.90
27747;DHT22;15138;51.012;4.692;2023-07-09T13:48:19;27.30;99.90
27747;DHT22;15138;51.012;4.692;2023-07-09T13:50:50;27.30;99.90
27747;DHT22;15138;51.012;4.692;2023-07-09T13:53:23;27.30;99.90
27747;DHT22;15138;51.012;4.692;2023-07-09T13:55:52;27.20;99.90
27747;DHT22;15138;51.012;4.692;2023-07-09T13:58:23;27.30;99.90
27747;DHT22;15138;51.012;4.692;2023-07-09T14:00:56;27.30;99.90
27747;DHT22;15138;51.012;4.692;2023-07-09T14:03:34;27.40;99.90
27747;DHT22;15138;51.012;4.692;2023-07-09T14:06:03;27.40;99.90
27747;DHT22;15138;51.012;4.692;2023-07-09T14:08:33;27.40;99.90
27747;DHT22;15138;51.012;4.692;2023-07-09T14:11:01;27.50;99.90
27747;DHT22;15138;51.012;4.692;2023-07-09T14:13:30;27.60;99.90
27747;DHT22;15138;51.012;4.692;2023-07-09T14:16:00;27.70;99.90
27747;DHT22;15138;51.012;4.692;2023-07-09T14:18:29;27.80;99.90
27747;DHT22;15138;51.012;4.692;2023-07-09T14:20:57;27.90;99.90
27747;DHT22;15138;51.012;4.692;2023-07-09T14:23:26;28.00;99.90
27747;DHT22;15138;51.012;4.692;2023-07-09T14:25:55;28.10;99.90
27747;DHT22;15138;51.012;4.692;2023-07-09T14:28:24;28.30;99.90
27747;DHT22;15138;51.012;4.692;2023-07-09T14:30:52;28.40;99.90
27747;DHT22;15138;51.012;4.692;2023-07-09T14:33:21;28.80;99.90
27747;DHT22;15138;51.012;4.692;2023-07-09T14:35:50;29.20;99.90
27747;DHT22;15138;51.012;4.692;2023-07-09T14:38:20;29.30;99.90
27747;DHT22;15138;51.012;4.692;2023-07-09T14:40:51;29.10;99.90
27747;DHT22;15138;51.012;4.692;2023-07-09T14:43:21;29.10;99.90
27747;DHT22;15138;51.012;4.692;2023-07-09T14:45:49;29.10;99.90
27747;DHT22;15138;51.012;4.692;2023-07-09T14:48:20;29.50;99.90
27747;DHT22;15138;51.012;4.692;2023-07-09T14:50:48;29.90;99.90
27747;DHT22;15138;51.012;4.692;2023-07-09T14:53:21;30.10;99.90
27747;DHT22;15138;51.012;4.692;2023-07-09T14:55:51;30.00;99.90
27747;DHT22;15138;51.012;4.692;2023-07-09T14:58:22;30.50;99.90
27747;DHT22;15138;51.012;4.692;2023-07-09T15:00:51;30.30;99.90
27747;DHT22;15138;51.012;4.692;2023-07-09T15:03:21;30.60;99.90
27747;DHT22;15138;51.012;4.692;2023-07-09T15:05:50;30.60;99.90
27747;DHT22;15138;51.012;4.692;2023-07-09T15:08:21;30.70;99.90
27747;DHT22;15138;51.012;4.692;2023-07-09T15:10:51;30.70;99.90
27747;DHT22;15138;51.012;4.692;2023-07-09T15:13:26;30.40;99.90
27747;DHT22;15138;51.012;4.692;2023-07-09T15:15:57;30.40;99.90
27747;DHT22;15138;51.012;4.692;2023-07-09T15:18:25;30.30;99.90
27747;DHT22;15138;51.012;4.692;2023-07-09T15:20:55;29.90;99.90
27747;DHT22;15138;51.012;4.692;2023-07-09T15:23:25;30.00;99.90
27747;DHT22;15138;51.012;4.692;2023-07-09T15:25:55;30.10;99.90
27747;DHT22;15138;51.012;4.692;2023-07-09T15:28:24;30.20;99.90
27747;DHT22;15138;51.012;4.692;2023-07-09T15:30:53;30.20;99.90
27747;DHT22;15138;51.012;4.692;2023-07-09T15:33:21;30.30;99.90
27747;DHT22;15138;51.012;4.692;2023-07-09T15:35:49;30.50;99.90
27747;DHT22;15138;51.012;4.692;2023-07-09T15:38:29;30.80;99.90
27747;DHT22;15138;51.012;4.692;2023-07-09T15:40:58;31.10;99.90
27747;DHT22;15138;51.012;4.692;2023-07-09T15:43:28;31.30;99.90
27747;DHT22;15138;51.012;4.692;2023-07-09T15:45:57;31.20;99.90
27747;DHT22;15138;51.012;4.692;2023-07-09T15:48:32;31.40;99.90
27747;DHT22;15138;51.012;4.692;2023-07-09T15:51:01;31.10;99.90
27747;DHT22;15138;51.012;4.692;2023-07-09T15:53:31;31.20;99.90
27747;DHT22;15138;51.012;4.692;2023-07-09T15:56:02;31.30;99.90
27747;DHT22;15138;51.012;4.692;2023-07-09T15:58:38;31.10;99.90
27747;DHT22;15138;51.012;4.692;2023-07-09T16:01:07;31.10;99.90
27747;DHT22;15138;51.012;4.692;2023-07-09T16:03:37;31.30;99.90
27747;DHT22;15138;51.012;4.692;2023-07-09T16:06:05;31.30;99.90
27747;DHT22;15138;51.012;4.692;2023-07-09T16:08:34;31.10;99.90
27747;DHT22;15138;51.012;4.692;2023-07-09T16:11:08;31.20;99.90
27747;DHT22;15138;51.012;4.692;2023-07-09T16:13:38;31.10;99.90